createdAt,value
2023-05-05T00:00:36.634Z,0.00
2023-05-05T00:01:36.589Z,0.00
2023-05-05T00:02:36.787Z,0.00
2023-05-05T00:03:36.645Z,0.00
2023-05-05T00:04:36.571Z,0.00
2023-05-05T00:05:36.551Z,0.00
2023-05-05T00:06:36.552Z,0.00
2023-05-05T00:07:36.542Z,0.00
2023-05-05T00:08:36.552Z,0.00
2023-05-05T00:09:36.544Z,0.00
2023-05-05T00:10:36.499Z,0.00
2023-05-05T00:11:36.499Z,0.00
2023-05-05T00:12:36.524Z,0.00
2023-05-05T00:13:36.461Z,0.00
2023-05-05T00:14:36.495Z,0.00
2023-05-05T00:15:36.452Z,0.00
2023-05-05T00:16:36.501Z,0.00
2023-05-05T00:17:36.432Z,0.00
2023-05-05T00:18:36.435Z,0.00
2023-05-05T00:19:36.417Z,0.00
2023-05-05T00:20:36.488Z,0.00
2023-05-05T00:21:36.411Z,0.00
2023-05-05T00:22:36.387Z,0.00
2023-05-05T00:23:36.367Z,0.00
2023-05-05T00:24:36.361Z,0.00
2023-05-05T00:25:36.367Z,0.00
2023-05-05T00:26:36.390Z,0.00
2023-05-05T00:27:37.415Z,0.00
2023-05-05T00:28:36.324Z,0.00
2023-05-05T00:29:36.313Z,0.00
2023-05-05T00:30:36.302Z,0.00
2023-05-05T00:31:36.349Z,0.00
2023-05-05T00:32:36.364Z,0.00
2023-05-05T00:33:36.253Z,0.00
2023-05-05T00:34:36.259Z,0.00
2023-05-05T00:35:36.262Z,0.00
2023-05-05T00:36:36.228Z,0.00
2023-05-05T00:37:36.229Z,0.00
2023-05-05T00:38:36.247Z,0.00
2023-05-05T00:39:36.181Z,0.00
2023-05-05T00:40:36.195Z,0.00
2023-05-05T00:41:36.167Z,0.00
2023-05-05T00:42:36.200Z,0.00
2023-05-05T00:43:36.146Z,0.00
2023-05-05T00:44:36.269Z,0.00
2023-05-05T00:45:36.126Z,0.00
2023-05-05T00:46:36.178Z,0.00
2023-05-05T00:47:36.134Z,0.00
2023-05-05T00:48:36.115Z,0.00
2023-05-05T00:49:36.155Z,0.00
2023-05-05T00:50:36.091Z,0.00
2023-05-05T00:51:36.074Z,0.00
2023-05-05T00:52:36.087Z,0.00
2023-05-05T00:53:36.037Z,0.00
2023-05-05T00:54:36.065Z,0.00
2023-05-05T00:55:36.038Z,0.00
2023-05-05T00:56:36.014Z,0.00
2023-05-05T00:57:36.000Z,0.00
2023-05-05T00:58:36.010Z,0.00
2023-05-05T00:59:35.993Z,0.00
2023-05-05T01:00:35.972Z,0.00
2023-05-05T01:01:36.050Z,0.00
2023-05-05T01:02:36.744Z,0.00
2023-05-05T01:03:36.053Z,0.00
2023-05-05T01:04:35.948Z,0.00
2023-05-05T01:05:35.925Z,0.00
2023-05-05T01:06:35.918Z,0.00
2023-05-05T01:07:35.908Z,0.00
2023-05-05T01:08:35.887Z,0.00
2023-05-05T01:09:35.882Z,0.00
2023-05-05T01:10:35.870Z,0.00
2023-05-05T01:11:35.866Z,0.00
2023-05-05T01:12:35.913Z,0.00
2023-05-05T01:13:35.836Z,0.00
2023-05-05T01:14:35.840Z,0.00
2023-05-05T01:15:35.806Z,0.00
2023-05-05T01:16:35.926Z,0.00
2023-05-05T01:17:35.828Z,0.00
2023-05-05T01:18:35.817Z,0.00
2023-05-05T01:19:35.789Z,0.00
2023-05-05T01:20:35.756Z,0.00
2023-05-05T01:21:35.758Z,0.00
2023-05-05T01:22:35.726Z,0.00
2023-05-05T01:23:35.820Z,0.00
2023-05-05T01:24:35.728Z,0.00
2023-05-05T01:25:35.721Z,0.00
2023-05-05T01:26:35.697Z,0.00
2023-05-05T01:27:35.692Z,0.00
2023-05-05T01:28:35.650Z,0.00
2023-05-05T01:29:35.670Z,0.00
2023-05-05T06:00:44.871Z,537.00
2023-05-05T06:01:45.830Z,543.00
2023-05-05T06:02:45.903Z,545.00
2023-05-05T06:03:45.955Z,539.00
2023-05-05T06:04:45.798Z,546.00
2023-05-05T06:05:45.818Z,554.00
2023-05-05T06:06:45.786Z,555.00
2023-05-05T06:07:45.765Z,555.00
2023-05-05T06:08:45.729Z,556.00
2023-05-05T06:09:45.749Z,566.00
2023-05-05T06:10:45.739Z,575.00
2023-05-05T06:11:45.743Z,578.00
2023-05-05T06:12:45.764Z,580.00
2023-05-05T06:13:45.696Z,589.00
2023-05-05T06:14:45.668Z,593.00
2023-05-05T06:15:45.712Z,587.00
2023-05-05T06:16:45.660Z,569.00
2023-05-05T06:17:45.655Z,570.00
2023-05-05T06:18:45.672Z,576.00
2023-05-05T06:19:45.627Z,581.00
2023-05-05T06:20:45.618Z,591.00
2023-05-05T06:21:45.606Z,605.00
2023-05-05T06:22:45.609Z,618.00
2023-05-05T06:23:45.583Z,636.00
2023-05-05T06:24:45.579Z,659.00
2023-05-05T06:25:45.555Z,683.00
2023-05-05T06:26:45.550Z,721.00
2023-05-05T06:27:45.549Z,761.00
2023-05-05T06:28:45.522Z,796.00
2023-05-05T06:29:45.522Z,819.00
2023-05-05T06:30:45.518Z,825.00
2023-05-05T06:31:45.553Z,809.00
2023-05-05T06:32:45.550Z,782.00
2023-05-05T06:33:45.488Z,753.00
2023-05-05T06:34:45.463Z,724.00
2023-05-05T06:35:45.462Z,709.00
2023-05-05T06:36:45.495Z,701.00
2023-05-05T06:37:45.451Z,678.00
2023-05-05T06:38:45.419Z,645.00
2023-05-05T06:39:45.419Z,621.00
2023-05-05T06:40:45.397Z,595.00
2023-05-05T06:41:45.396Z,571.00
2023-05-05T06:42:45.394Z,551.00
2023-05-05T06:43:45.380Z,534.00
2023-05-05T06:44:45.352Z,532.00
2023-05-05T06:45:45.348Z,537.00
2023-05-05T06:46:45.341Z,546.00
2023-05-05T06:47:45.350Z,555.00
2023-05-05T06:48:45.332Z,573.00
2023-05-05T06:49:45.320Z,598.00
2023-05-05T06:50:45.287Z,604.00
2023-05-05T06:51:45.294Z,592.00
2023-05-05T06:52:45.256Z,595.00
2023-05-05T06:53:45.278Z,615.00
2023-05-05T06:54:45.280Z,622.00
2023-05-05T06:55:45.277Z,637.00
2023-05-05T06:56:45.319Z,648.00
2023-05-05T06:57:45.245Z,666.00
2023-05-05T06:58:45.211Z,681.00
2023-05-05T06:59:45.204Z,669.00
2023-05-05T07:00:45.211Z,655.00
2023-05-05T07:01:45.208Z,655.00
2023-05-05T07:02:45.173Z,673.00
2023-05-05T07:03:45.282Z,689.00
2023-05-05T07:04:45.136Z,689.00
2023-05-05T07:05:45.145Z,692.00
2023-05-05T07:06:45.124Z,692.00
2023-05-05T07:07:45.129Z,690.00
2023-05-05T07:08:45.102Z,692.00
2023-05-05T07:09:45.115Z,698.00
2023-05-05T07:10:45.073Z,707.00
2023-05-05T07:11:45.076Z,725.00
2023-05-05T07:12:45.107Z,743.00
2023-05-05T07:13:45.081Z,757.00
2023-05-05T07:14:45.026Z,770.00
2023-05-05T07:15:45.039Z,790.00
2023-05-05T07:16:45.016Z,819.00
2023-05-05T07:17:45.031Z,848.00
2023-05-05T07:18:45.014Z,873.00
2023-05-05T07:19:45.033Z,904.00
2023-05-05T07:20:45.001Z,948.00
2023-05-05T07:22:44.947Z,1038.00
2023-05-05T07:23:44.954Z,1078.00
2023-05-05T07:24:44.969Z,1122.00
2023-05-05T07:25:44.933Z,1144.00
2023-05-05T07:26:44.909Z,1159.00
2023-05-05T07:27:44.898Z,1181.00
2023-05-05T07:28:44.897Z,1167.00
2023-05-05T07:29:44.878Z,1175.00
2023-05-05T07:30:44.873Z,1190.00
2023-05-05T07:31:44.904Z,1181.00
2023-05-05T07:32:44.868Z,1176.00
2023-05-05T07:33:44.889Z,1177.00
2023-05-05T07:34:44.813Z,1162.00
2023-05-05T07:35:44.817Z,1138.00
2023-05-05T07:36:44.818Z,1138.00
2023-05-05T07:37:44.818Z,1154.00
2023-05-05T07:38:44.781Z,1173.00
2023-05-05T07:39:44.780Z,1187.00
2023-05-05T07:40:44.741Z,1209.00
2023-05-05T07:41:44.768Z,1230.00
2023-05-05T07:42:44.762Z,1274.00
2023-05-05T07:43:44.862Z,1294.00
2023-05-05T07:44:44.723Z,1305.00
2023-05-05T07:45:44.737Z,1319.00
2023-05-05T07:46:44.690Z,1345.00
2023-05-05T07:47:44.724Z,1352.00
2023-05-05T07:48:44.727Z,1329.00
2023-05-05T07:49:44.701Z,1334.00
2023-05-05T07:50:44.650Z,1346.00
2023-05-05T07:51:44.638Z,1365.00
2023-05-05T07:52:50.007Z,1395.00
2023-05-05T07:53:44.624Z,1395.00
2023-05-05T07:54:44.650Z,1387.00
2023-05-05T07:55:44.587Z,1394.00
2023-05-05T07:56:44.617Z,1392.00
2023-05-05T07:57:44.574Z,1386.00
2023-05-05T07:58:44.592Z,1354.00
2023-05-05T07:59:44.570Z,1353.00
2023-05-05T08:00:44.638Z,1313.00
2023-05-05T08:01:44.581Z,1288.00
2023-05-05T08:02:44.610Z,1334.00
2023-05-05T08:03:44.599Z,1360.00
2023-05-05T08:04:44.642Z,1376.00
2023-05-05T08:05:44.521Z,1340.00
2023-05-05T08:06:44.481Z,1301.00
2023-05-05T08:07:44.465Z,1332.00
2023-05-05T08:08:44.455Z,1351.00
2023-05-05T08:09:44.441Z,1340.00
2023-05-05T08:10:44.455Z,1325.00
2023-05-05T08:11:44.453Z,1157.00
2023-05-05T08:12:44.443Z,1225.00
2023-05-05T08:13:44.393Z,1396.00
2023-05-05T08:14:44.418Z,1296.00
2023-05-05T08:15:44.412Z,1325.00
2023-05-05T08:16:44.421Z,1349.00
2023-05-05T08:17:44.386Z,1334.00
2023-05-05T08:18:44.355Z,1243.00
2023-05-05T08:19:44.347Z,1302.00
2023-05-05T08:20:44.335Z,1346.00
2023-05-05T08:21:44.299Z,1316.00
2023-05-05T08:22:44.376Z,1244.00
2023-05-05T08:23:44.316Z,1098.00
2023-05-05T08:24:44.314Z,952.00
2023-05-05T08:25:44.286Z,833.00
2023-05-05T08:26:44.275Z,750.00
2023-05-05T08:27:44.253Z,742.00
2023-05-05T08:28:44.266Z,793.00
2023-05-05T08:29:44.221Z,876.00
2023-05-05T08:30:44.234Z,933.00
2023-05-05T08:31:44.272Z,1014.00
2023-05-05T08:32:44.245Z,1156.00
2023-05-05T08:33:44.181Z,1237.00
2023-05-05T08:34:44.224Z,1480.00
2023-05-05T08:35:44.167Z,1576.00
2023-05-05T08:36:44.193Z,1625.00
2023-05-05T08:37:44.149Z,1699.00
2023-05-05T08:38:44.153Z,1741.00
2023-05-05T08:39:44.164Z,1759.00
2023-05-05T08:40:44.181Z,1640.00
2023-05-05T08:41:44.111Z,1722.00
2023-05-05T08:42:44.106Z,1858.00
2023-05-05T08:43:44.086Z,1963.00
2023-05-05T08:44:44.078Z,1872.00
2023-05-05T08:45:44.062Z,1698.00
2023-05-05T08:46:44.132Z,1525.00
2023-05-05T08:47:44.058Z,1389.00
2023-05-05T08:48:44.043Z,1316.00
2023-05-05T08:49:44.014Z,1288.00
2023-05-05T08:50:44.014Z,1284.00
2023-05-05T08:51:44.013Z,1274.00
2023-05-05T08:52:44.706Z,1302.00
2023-05-05T08:53:43.964Z,1331.00
2023-05-05T08:54:43.984Z,1381.00
2023-05-05T08:55:43.956Z,1500.00
2023-05-05T08:56:43.969Z,1586.00
2023-05-05T08:57:43.925Z,1678.00
2023-05-05T08:58:43.940Z,1831.00
2023-05-05T08:59:43.895Z,1987.00
2023-05-05T09:00:43.923Z,2081.00
2023-05-05T09:01:43.881Z,2292.00
2023-05-05T09:02:44.034Z,2391.00
2023-05-05T09:03:43.862Z,2267.00
2023-05-05T09:04:43.895Z,2197.00
2023-05-05T09:05:43.840Z,2193.00
2023-05-05T09:06:43.856Z,2226.00
2023-05-05T09:07:43.820Z,2236.00
2023-05-05T09:08:43.835Z,2122.00
2023-05-05T09:09:43.798Z,2139.00
2023-05-05T09:10:43.827Z,2086.00
2023-05-05T09:11:43.791Z,2015.00
2023-05-05T09:12:43.831Z,1951.00
2023-05-05T09:13:43.785Z,1840.00
2023-05-05T09:14:43.772Z,1889.00
2023-05-05T09:15:43.730Z,1922.00
2023-05-05T09:16:43.783Z,2018.00
2023-05-05T09:17:43.805Z,2014.00
2023-05-05T09:18:43.715Z,2065.00
2023-05-05T09:19:43.687Z,2107.00
2023-05-05T09:20:43.706Z,2232.00
2023-05-05T09:21:43.685Z,2344.00
2023-05-05T09:22:43.692Z,2360.00
2023-05-05T09:23:43.659Z,2396.00
2023-05-05T09:24:43.659Z,2425.00
2023-05-05T09:25:43.646Z,2451.00
2023-05-05T09:26:43.635Z,2448.00
2023-05-05T09:27:43.654Z,2477.00
2023-05-05T09:28:43.629Z,2501.00
2023-05-05T09:29:43.586Z,2530.00
2023-05-05T09:30:43.652Z,2481.00
2023-05-05T09:31:43.567Z,2397.00
2023-05-05T09:32:43.592Z,2313.00
2023-05-05T09:33:43.586Z,2201.00
2023-05-05T09:34:43.560Z,2117.00
2023-05-05T09:35:43.525Z,1989.00
2023-05-05T09:36:43.544Z,1856.00
2023-05-05T09:37:43.508Z,1717.00
2023-05-05T09:38:43.514Z,1605.00
2023-05-05T09:39:43.518Z,1548.00
2023-05-05T09:40:43.506Z,1506.00
2023-05-05T09:41:43.471Z,1471.00
2023-05-05T09:42:43.481Z,1510.00
2023-05-05T09:43:43.430Z,1527.00
2023-05-05T09:44:43.444Z,1556.00
2023-05-05T09:45:43.462Z,1554.00
2023-05-05T09:46:43.503Z,1552.00
2023-05-05T09:47:43.421Z,1537.00
2023-05-05T09:48:43.400Z,1514.00
2023-05-05T09:49:43.382Z,1506.00
2023-05-05T09:50:43.397Z,1516.00
2023-05-05T09:51:43.369Z,1537.00
2023-05-05T09:52:43.375Z,1555.00
2023-05-05T09:53:43.345Z,1572.00
2023-05-05T09:54:43.349Z,1587.00
2023-05-05T09:55:43.321Z,1649.00
2023-05-05T09:56:43.325Z,1699.00
2023-05-05T09:57:43.282Z,1725.00
2023-05-05T09:58:43.349Z,1706.00
2023-05-05T09:59:43.258Z,1670.00
2023-05-05T10:00:43.261Z,1641.00
2023-05-05T10:01:43.375Z,1628.00
2023-05-05T10:02:43.291Z,1628.00
2023-05-05T10:03:43.216Z,1625.00
2023-05-05T10:04:43.283Z,1635.00
2023-05-05T10:05:43.206Z,1691.00
2023-05-05T10:06:43.200Z,1791.00
2023-05-05T10:07:43.247Z,1874.00
2023-05-05T10:08:43.192Z,1878.00
2023-05-05T10:09:43.182Z,1943.00
2023-05-05T10:10:43.153Z,2118.00
2023-05-05T10:11:43.154Z,2158.00
2023-05-05T10:12:43.196Z,2123.00
2023-05-05T10:13:43.152Z,2066.00
2023-05-05T10:14:43.121Z,1929.00
2023-05-05T10:15:43.126Z,1849.00
2023-05-05T10:16:43.144Z,1851.00
2023-05-05T10:17:50.967Z,1923.00
2023-05-05T10:18:43.092Z,2032.00
2023-05-05T10:19:43.120Z,2271.00
2023-05-05T10:20:43.041Z,2517.00
2023-05-05T10:21:43.043Z,2682.00
2023-05-05T10:22:43.031Z,2853.00
2023-05-05T10:23:43.005Z,2742.00
2023-05-05T10:24:43.054Z,2477.00
2023-05-05T10:25:42.993Z,2584.00
2023-05-05T10:26:43.004Z,2651.00
2023-05-05T10:27:42.971Z,2728.00
2023-05-05T10:28:42.969Z,2628.00
2023-05-05T10:29:42.952Z,2761.00
2023-05-05T10:30:42.993Z,2869.00
2023-05-05T10:31:42.965Z,2883.00
2023-05-05T10:33:42.942Z,2801.00
2023-05-05T10:34:42.947Z,3097.00
2023-05-05T10:35:42.884Z,3492.00
2023-05-05T10:36:42.900Z,3705.00
2023-05-05T10:37:42.852Z,3502.00
2023-05-05T10:38:42.876Z,3595.00
2023-05-05T10:39:42.846Z,3796.00
2023-05-05T10:40:42.867Z,3653.00
2023-05-05T10:41:42.833Z,3129.00
2023-05-05T10:42:42.839Z,2668.00
2023-05-05T10:43:42.809Z,2243.00
2023-05-05T10:44:42.806Z,2407.00
2023-05-05T10:45:42.902Z,2718.00
2023-05-05T10:46:42.899Z,2633.00
2023-05-05T10:47:42.805Z,2895.00
2023-05-05T10:48:42.855Z,2951.00
2023-05-05T10:49:42.729Z,3207.00
2023-05-05T10:50:42.754Z,3342.00
2023-05-05T10:51:42.714Z,3356.00
2023-05-05T10:52:42.737Z,3326.00
2023-05-05T10:53:42.737Z,3455.00
2023-05-05T10:54:42.748Z,3612.00
2023-05-05T10:55:42.675Z,3541.00
2023-05-05T10:56:42.697Z,3486.00
2023-05-05T10:57:42.735Z,3326.00
2023-05-05T10:58:58.398Z,3469.00
2023-05-05T10:59:42.659Z,3480.00
2023-05-05T11:00:42.672Z,3577.00
2023-05-05T11:01:42.626Z,3608.00
2023-05-05T11:02:42.645Z,3599.00
2023-05-05T11:03:42.621Z,3631.00
2023-05-05T11:04:42.596Z,3600.00
2023-05-05T11:05:42.578Z,3780.00
2023-05-05T11:06:42.595Z,3743.00
2023-05-05T11:07:42.534Z,3728.00
2023-05-05T11:08:42.576Z,3687.00
2023-05-05T11:09:42.535Z,3558.00
2023-05-05T11:10:42.555Z,3450.00
2023-05-05T11:11:42.516Z,3390.00
2023-05-05T11:12:42.560Z,2942.00
2023-05-05T11:13:42.494Z,2935.00
2023-05-05T11:14:42.485Z,3061.00
2023-05-05T11:15:42.482Z,3621.00
2023-05-05T11:16:42.589Z,3641.00
2023-05-05T11:17:42.462Z,3767.00
2023-05-05T11:18:42.442Z,3565.00
2023-05-05T11:19:42.421Z,3327.00
2023-05-05T11:20:42.423Z,3930.00
2023-05-05T11:21:42.406Z,4021.00
2023-05-05T11:22:42.431Z,3551.00
2023-05-05T11:23:42.396Z,3097.00
2023-05-05T11:24:42.390Z,2945.00
2023-05-05T11:25:42.375Z,3121.00
2023-05-05T11:26:42.405Z,3310.00
2023-05-05T11:27:42.341Z,3515.00
2023-05-05T11:28:42.356Z,3392.00
2023-05-05T11:29:42.317Z,3238.00
2023-05-05T11:30:42.375Z,2879.00
2023-05-05T11:31:42.340Z,2570.00
2023-05-05T11:32:42.359Z,2249.00
2023-05-05T11:33:42.275Z,2047.00
2023-05-05T11:34:42.327Z,1962.00
2023-05-05T11:35:42.257Z,1952.00
2023-05-05T11:36:42.253Z,1936.00
2023-05-05T11:37:42.241Z,1929.00
2023-05-05T11:38:42.264Z,1968.00
2023-05-05T11:39:42.221Z,2018.00
2023-05-05T11:40:42.274Z,2038.00
2023-05-05T11:41:42.183Z,2086.00
2023-05-05T11:42:42.198Z,2142.00
2023-05-05T11:43:42.170Z,2176.00
2023-05-05T11:44:42.180Z,2179.00
2023-05-05T11:45:42.149Z,2284.00
2023-05-05T11:46:42.300Z,2343.00
2023-05-05T11:47:42.138Z,2397.00
2023-05-05T11:48:42.137Z,2400.00
2023-05-05T11:49:42.111Z,2337.00
2023-05-05T11:50:42.117Z,2284.00
2023-05-05T11:51:42.104Z,2191.00
2023-05-05T11:52:42.119Z,1860.00
2023-05-05T11:53:42.071Z,2313.00
2023-05-05T11:54:42.065Z,2327.00
2023-05-05T11:55:42.042Z,2059.00
2023-05-05T11:56:42.048Z,2397.00
2023-05-05T11:57:42.014Z,2153.00
2023-05-05T11:58:42.026Z,1939.00
2023-05-05T11:59:41.995Z,2006.00
2023-05-05T12:00:42.008Z,1923.00
2023-05-05T12:01:41.987Z,2095.00
2023-05-05T12:02:42.113Z,2884.00
2023-05-05T12:03:42.147Z,2764.00
2023-05-05T12:04:42.016Z,2622.00
2023-05-05T12:05:41.946Z,2516.00
2023-05-05T12:06:41.925Z,2497.00
2023-05-05T12:07:41.925Z,2450.00
2023-05-05T12:08:41.934Z,2501.00
2023-05-05T12:09:41.895Z,2508.00
2023-05-05T12:10:41.897Z,2614.00
2023-05-05T12:11:41.870Z,1932.00
2023-05-05T12:12:41.866Z,1898.00
2023-05-05T12:13:41.871Z,3759.00
2023-05-05T12:14:41.865Z,3333.00
2023-05-05T12:15:41.846Z,3452.00
2023-05-05T12:16:41.954Z,4235.00
2023-05-05T12:17:41.885Z,4756.00
2023-05-05T12:18:41.799Z,4558.00
2023-05-05T12:19:41.851Z,4394.00
2023-05-05T12:20:41.771Z,4334.00
2023-05-05T12:21:41.771Z,4262.00
2023-05-05T12:22:41.756Z,3931.00
2023-05-05T12:23:41.751Z,4060.00
2023-05-05T12:24:41.737Z,4289.00
2023-05-05T12:25:41.761Z,4688.00
2023-05-05T12:26:41.718Z,4113.00
2023-05-05T12:27:41.716Z,4860.00
2023-05-05T12:28:41.701Z,3785.00
2023-05-05T12:29:41.701Z,4117.00
2023-05-05T12:30:41.791Z,4777.00
2023-05-05T12:31:41.781Z,5035.00
2023-05-05T12:32:41.695Z,4742.00
2023-05-05T12:33:41.650Z,4710.00
2023-05-05T12:34:41.631Z,4632.00
2023-05-05T12:35:41.643Z,4925.00
2023-05-05T12:36:41.615Z,4497.00
2023-05-05T12:37:41.663Z,4259.00
2023-05-05T12:38:41.584Z,4035.00
2023-05-05T12:39:41.627Z,4020.00
2023-05-05T12:40:41.568Z,3846.00
2023-05-05T12:41:41.573Z,3917.00
2023-05-05T12:42:41.566Z,4002.00
2023-05-05T12:43:41.554Z,4285.00
2023-05-05T12:44:41.523Z,4332.00
2023-05-05T12:45:41.557Z,4653.00
2023-05-05T12:46:41.500Z,4856.00
2023-05-05T12:47:41.569Z,4785.00
2023-05-05T12:48:41.537Z,4583.00
2023-05-05T12:49:41.477Z,4406.00
2023-05-05T12:50:41.475Z,4241.00
2023-05-05T12:51:41.461Z,4016.00
2023-05-05T12:52:41.430Z,4134.00
2023-05-05T12:53:41.441Z,3946.00
2023-05-05T12:54:41.440Z,4051.00
2023-05-05T12:55:41.435Z,3605.00
2023-05-05T12:56:41.411Z,3734.00
2023-05-05T12:57:41.402Z,4049.00
2023-05-05T12:58:41.389Z,4310.00
2023-05-05T12:59:41.403Z,4241.00
2023-05-05T13:00:41.402Z,3886.00
2023-05-05T13:01:41.410Z,4020.00
2023-05-05T13:02:41.432Z,4094.00
2023-05-05T13:03:41.357Z,3501.00
2023-05-05T13:04:41.320Z,3343.00
2023-05-05T13:05:41.316Z,4273.00
2023-05-05T13:06:41.315Z,4101.00
2023-05-05T13:07:41.405Z,3544.00
2023-05-05T13:08:41.271Z,3580.00
2023-05-05T13:09:41.282Z,3562.00
2023-05-05T13:10:41.251Z,3440.00
2023-05-05T13:11:41.250Z,3471.00
2023-05-05T13:12:41.286Z,3121.00
2023-05-05T13:13:41.239Z,3514.00
2023-05-05T13:14:41.215Z,3599.00
2023-05-05T13:15:41.271Z,3710.00
2023-05-05T13:16:41.188Z,3849.00
2023-05-05T13:17:41.226Z,3879.00
2023-05-05T13:18:41.192Z,3871.00
2023-05-05T13:19:41.181Z,3946.00
2023-05-05T13:20:41.179Z,3741.00
2023-05-05T13:21:41.153Z,3323.00
2023-05-05T13:22:41.127Z,3645.00
2023-05-05T13:23:41.125Z,3800.00
2023-05-05T13:24:51.473Z,4046.00
2023-05-05T13:25:41.125Z,4034.00
2023-05-05T13:26:41.083Z,3947.00
2023-05-05T13:27:41.099Z,4613.00
2023-05-05T13:28:41.083Z,3778.00
2023-05-05T13:29:41.083Z,2828.00
2023-05-05T13:30:41.064Z,4613.00
2023-05-05T13:31:41.148Z,4453.00
2023-05-05T13:32:41.070Z,5173.00
2023-05-05T13:33:41.020Z,5259.00
2023-05-05T13:34:41.028Z,4864.00
2023-05-05T13:35:41.042Z,4582.00
2023-05-05T13:36:41.002Z,4324.00
2023-05-05T13:37:41.000Z,5040.00
2023-05-05T13:38:40.962Z,4380.00
2023-05-05T13:39:40.961Z,4856.00
2023-05-05T13:40:40.951Z,4727.00
2023-05-05T13:41:40.979Z,5211.00
2023-05-05T13:42:40.929Z,4844.00
2023-05-05T13:43:40.933Z,4761.00
2023-05-05T13:44:40.891Z,4567.00
2023-05-05T13:45:42.001Z,4538.00
2023-05-05T13:46:40.882Z,5139.00
2023-05-05T13:47:41.026Z,5181.00
2023-05-05T13:48:40.868Z,5379.00
2023-05-05T13:49:40.864Z,5692.00
2023-05-05T13:50:40.831Z,5320.00
2023-05-05T13:51:40.863Z,4500.00
2023-05-05T13:52:40.821Z,5371.00
2023-05-05T13:53:40.880Z,4792.00
2023-05-05T13:54:40.820Z,5477.00
2023-05-05T13:55:40.817Z,5786.00
2023-05-05T13:56:40.792Z,6349.00
2023-05-05T13:57:40.771Z,5717.00
2023-05-05T13:58:40.754Z,5023.00
2023-05-05T13:59:40.809Z,5062.00
2023-05-05T14:00:40.844Z,4995.00
2023-05-05T14:01:40.769Z,4344.00
2023-05-05T14:02:40.743Z,6084.00
2023-05-05T14:03:40.743Z,5308.00
2023-05-05T14:04:40.709Z,5721.00
2023-05-05T14:05:40.693Z,5598.00
2023-05-05T14:06:40.689Z,6188.00
2023-05-05T14:07:40.695Z,6992.00
2023-05-05T14:08:40.649Z,5349.00
2023-05-05T14:09:40.638Z,5429.00
2023-05-05T14:10:40.688Z,4889.00
2023-05-05T14:11:40.658Z,4071.00
2023-05-05T14:12:40.634Z,4148.00
2023-05-05T14:13:40.632Z,5764.00
2023-05-05T14:14:40.571Z,6042.00
2023-05-05T14:15:40.598Z,5792.00
2023-05-05T14:16:40.643Z,6179.00
2023-05-05T14:17:40.658Z,5953.00
2023-05-05T14:18:40.563Z,6875.00
2023-05-05T14:19:40.559Z,7220.00
2023-05-05T14:20:40.515Z,6971.00
2023-05-05T14:21:40.532Z,6557.00
2023-05-05T14:22:40.504Z,5880.00
2023-05-05T14:23:40.551Z,5565.00
2023-05-05T14:24:40.494Z,5642.00
2023-05-05T14:25:40.478Z,5395.00
2023-05-05T14:26:40.478Z,4939.00
2023-05-05T14:27:40.479Z,4532.00
2023-05-05T14:28:40.454Z,4515.00
2023-05-05T14:29:40.504Z,4502.00
2023-05-05T14:30:40.429Z,4526.00
2023-05-05T14:31:40.491Z,4837.00
2023-05-05T14:32:40.454Z,4850.00
2023-05-05T14:33:40.414Z,4903.00
2023-05-05T14:34:40.367Z,4956.00
2023-05-05T14:35:40.394Z,4390.00
2023-05-05T14:36:40.384Z,5223.00
2023-05-05T14:37:40.382Z,4015.00
2023-05-05T14:38:40.400Z,3692.00
2023-05-05T14:39:40.350Z,3429.00
2023-05-05T14:40:40.305Z,3206.00
2023-05-05T14:41:40.326Z,3025.00
2023-05-05T14:42:40.328Z,3036.00
2023-05-05T14:43:40.302Z,3233.00
2023-05-05T14:44:40.479Z,3056.00
2023-05-05T14:45:40.293Z,3053.00
2023-05-05T14:46:40.251Z,2839.00
2023-05-05T14:47:40.318Z,2634.00
2023-05-05T14:48:40.254Z,2488.00
2023-05-05T14:49:40.258Z,2315.00
2023-05-05T14:50:40.201Z,2160.00
2023-05-05T14:51:40.205Z,2120.00
2023-05-05T14:52:40.224Z,2196.00
2023-05-05T14:53:40.207Z,2100.00
2023-05-05T14:54:40.214Z,1939.00
2023-05-05T14:55:40.191Z,1753.00
2023-05-05T14:56:40.139Z,1692.00
2023-05-05T14:57:40.151Z,1670.00
2023-05-05T14:58:40.172Z,1698.00
2023-05-05T14:59:40.166Z,1675.00
2023-05-05T15:00:40.159Z,1636.00
2023-05-05T15:01:40.154Z,1622.00
2023-05-05T15:02:40.341Z,1551.00
2023-05-05T15:03:40.147Z,1483.00
2023-05-05T15:04:40.067Z,1463.00
2023-05-05T15:05:40.090Z,1430.00
2023-05-05T15:06:40.062Z,1345.00
2023-05-05T15:07:40.101Z,1283.00
2023-05-05T15:08:40.012Z,1260.00
2023-05-05T15:09:40.044Z,1240.00
2023-05-05T15:10:40.019Z,1147.00
2023-05-05T15:11:40.016Z,1110.00
2023-05-05T15:12:40.074Z,1044.00
2023-05-05T15:13:39.981Z,954.00
2023-05-05T15:14:39.966Z,872.00
2023-05-05T15:15:39.994Z,802.00
2023-05-05T15:16:40.137Z,851.00
2023-05-05T15:17:39.960Z,802.00
2023-05-05T15:18:39.951Z,816.00
2023-05-05T15:19:39.912Z,858.00
2023-05-05T15:20:39.892Z,896.00
2023-05-05T15:21:39.890Z,857.00
2023-05-05T15:22:39.875Z,757.00
2023-05-05T15:23:39.897Z,601.00
2023-05-05T15:24:39.875Z,475.00
2023-05-05T15:25:39.847Z,415.00
2023-05-05T15:26:39.815Z,327.00
2023-05-05T15:27:39.827Z,263.00
2023-05-05T15:28:39.819Z,281.00
2023-05-05T15:29:39.858Z,406.00
2023-05-05T15:30:39.812Z,576.00
2023-05-05T15:31:39.797Z,768.00
2023-05-05T15:32:39.765Z,870.00
2023-05-05T15:33:39.775Z,958.00
2023-05-05T15:34:39.747Z,938.00
2023-05-05T15:35:39.740Z,871.00
2023-05-05T15:36:39.778Z,829.00
2023-05-05T15:37:39.716Z,780.00
2023-05-05T15:38:39.698Z,709.00
2023-05-05T15:39:39.714Z,701.00
2023-05-05T15:40:39.692Z,692.00
2023-05-05T15:41:39.699Z,659.00
2023-05-05T15:42:39.698Z,627.00
2023-05-05T15:43:39.675Z,597.00
2023-05-05T15:44:39.626Z,593.00
2023-05-05T15:45:39.669Z,623.00
2023-05-05T15:46:39.741Z,659.00
2023-05-05T15:47:39.677Z,662.00
2023-05-05T15:48:39.640Z,652.00
2023-05-05T15:49:39.611Z,671.00
2023-05-05T15:50:39.562Z,671.00
2023-05-05T15:51:39.600Z,720.00
2023-05-05T15:52:39.561Z,757.00
2023-05-05T15:53:39.608Z,792.00
2023-05-05T15:54:39.541Z,792.00
2023-05-05T15:55:39.543Z,790.00
2023-05-05T15:56:39.500Z,806.00
2023-05-05T15:57:39.519Z,834.00
2023-05-05T15:58:39.476Z,852.00
2023-05-05T15:59:39.507Z,855.00
2023-05-05T16:00:39.457Z,859.00
2023-05-05T16:01:39.594Z,865.00
2023-05-05T16:02:39.474Z,860.00
2023-05-05T16:03:39.468Z,860.00
2023-05-05T16:04:39.437Z,851.00
2023-05-05T16:05:39.468Z,929.00
2023-05-05T16:06:39.400Z,940.00
2023-05-05T16:07:39.415Z,1005.00
2023-05-05T16:08:39.403Z,1018.00
2023-05-05T16:09:39.399Z,984.00
2023-05-05T16:10:39.363Z,945.00
2023-05-05T16:11:39.390Z,890.00
2023-05-05T16:12:39.386Z,932.00
2023-05-05T16:13:39.369Z,998.00
2023-05-05T16:14:39.318Z,1044.00
2023-05-05T16:15:39.340Z,1049.00
2023-05-05T16:16:39.364Z,1011.00
2023-05-05T16:17:39.360Z,937.00
2023-05-05T16:18:39.275Z,897.00
2023-05-05T16:19:39.287Z,866.00
2023-05-05T16:20:39.260Z,839.00
2023-05-05T16:21:39.256Z,826.00
2023-05-05T16:22:39.244Z,896.00
2023-05-05T16:23:39.238Z,983.00
2023-05-05T16:24:39.421Z,1018.00
2023-05-05T16:25:39.193Z,1001.00
2023-05-05T16:26:39.209Z,1015.00
2023-05-05T16:27:39.184Z,1013.00
2023-05-05T16:28:39.248Z,1007.00
2023-05-05T16:29:39.146Z,986.00
2023-05-05T16:30:39.180Z,969.00
2023-05-05T16:31:39.180Z,1002.00
2023-05-05T16:32:39.207Z,1113.00
2023-05-05T16:33:39.149Z,1117.00
2023-05-05T16:34:39.136Z,932.00
2023-05-05T16:35:39.094Z,845.00
2023-05-05T16:36:39.104Z,812.00
2023-05-05T16:37:39.099Z,714.00
2023-05-05T16:38:39.086Z,686.00
2023-05-05T16:39:39.090Z,713.00
2023-05-05T16:40:39.292Z,719.00
2023-05-05T16:41:39.229Z,678.00
2023-05-05T16:42:39.018Z,622.00
2023-05-05T16:43:39.022Z,686.00
2023-05-05T16:44:39.016Z,718.00
2023-05-05T16:45:39.022Z,820.00
2023-05-05T16:46:39.088Z,827.00
2023-05-05T16:47:39.085Z,742.00
2023-05-05T16:48:38.978Z,621.00
2023-05-05T16:49:38.973Z,555.00
2023-05-05T16:50:39.013Z,468.00
2023-05-05T16:51:38.978Z,475.00